Center, South Dakota
Current Conditions -  °F | °C
As of 9:55 PM on Saturday 25 Oct 2014 (Local Time) from KMDS Reporting Station
Clear Clear  
Wind Chill: 39°   Ceiling: Unl
Heat Index: 43°   Visibility: 10mi
Dew Point: 28°   Wind: 7mph
Humidity: 57%   Direction: 90°E
Pressure: 30.06"   Gusts: NA
Location:  43.7599°N, 97.3683°W
Report Text: KMDS 260255Z AUTO 09006KT 10SM CLR 06/M02 A3006 RMK AO2
Loading
Personal Weather Stations






























Interactive Weather Map
Tropical Storm Tracking
New forecast layout! Learn more

10-Day Weather Forecast

Advertisements
Track Severe Weather on mobile